Fortuna, MO (65034)

8:35 AM CDT on September 17, 2014 (GMT -0500)
KMOCALIF1 | Change Station
CLOSE
Current Station
Personal Weather Station
Location: California, MO
Elevation: 864 ft
Nearby Weather Stations

Elev 864 ft 38.63 °N, 92.57 °W | Updated 12 seconds ago

Rain
Rain
61.3 °F
Feels Like 61.3 °F
N
4.5
Wind Variable Wind from ESE
Gusts 4.5 mph

Today
High -- | Low -- °F
--% Chance of Precip.
Yesterday
High -- | Low -- °F
Precip. -- in
6:54 AM 7:16 PM
Waning Crescent, 36% visible
Pressure 29.96 in
Visibility 2.5 miles
Clouds Mostly Cloudy 500 ft
Mostly Cloudy 1400 ft
Overcast 11000 ft
Dew Point 60 °F
Humidity 95%
Rainfall 0.14 in
Snow Depth Not available.
UV 0.0 out of 12
Pollen 6.60 out of 12
Air Quality Not available.
Flu Activity Not available.
SPECI KDMO 171320Z AUTO 14005KT 2 1/2SM BR BKN005 BKN014 OVC110 17/16 A2996 RMK AO2 LTG DSNT SW RAE20 CIG 002V008 P0001 T01720161

More Conditions Fewer Conditions

Pressure 29.96 in
Visibility 2.5 miles
Clouds Mostly Cloudy 500 ft
Mostly Cloudy 1400 ft
Overcast 11000 ft
Dew Point 60 °F
Humidity 95%
Rainfall 0.14 in
Snow Depth Not available.
UV 0.0 out of 12
Pollen 6.60 out of 12
Air Quality Not available.
Flu Activity Not available.
SPECI KDMO 171320Z AUTO 14005KT 2 1/2SM BR BKN005 BKN014 OVC110 17/16 A2996 RMK AO2 LTG DSNT SW RAE20 CIG 002V008 P0001 T01720161

More Conditions Fewer Conditions

10-Day Weather Forecast

Almanac

Astronomy

Sep. 17, 2014 Rise Set
Actual Time 6:54 AM CDT 7:16 PM CDT
Civil Twilight 6:27 AM CDT 7:42 PM CDT
Nautical Twilight 5:56 AM CDT 8:13 PM CDT
Astronomical Twilight 5:24 AM CDT 8:45 PM CDT
Moon 12:57 AM CDT 3:23 PM CDT
Length of Visible Light 13h 14m
Length of Day
12h 21m
Tomorrow will be 2m 29s shorter.
Waning Crescent, 36% of the Moon is Illuminated
Today
Waning Crescent
Sep 24
New
Oct 1
First Quarter
Oct 8
Full
Oct 15
Last Quarter

Today's Extremes

State Highs State Lows

Community

WunderPhotos

Upload Photos

1,754,029 photos uploaded!

Nearby

Snow Depth

Station Depth Elevation
No new snow has been reported.

Earthquake Activity

City Distance Mag. Time & Date
No recent earthquake activity has been reported nearby.
Minimum magnitude displayed is 2.5.

Coastal Water Temperatures

Place Temperature
No Stations Reporting

Nearby Weather Stations